Time;durP1;ratioP1;P1;durP2;ratioP2;P2;SDS_P1;SDS_P2;PMS_P1;PMS_P2;Temp;Humidity;BMP_temperature;BMP_pressure;BME280_temperature;BME280_humidity;BME280_pressure;Samples;Min_cycle;Max_cycle;Signal;HPM_P1;HPM_P2
2022/01/15 00:00:20;;;;;;;25.98;14.52;;;;;;;-2.35;96.67;99944.22;5015130;28;20014;-65
2022/01/15 00:02:45;;;;;;;34.97;13.13;;;;;;;-2.31;96.25;99936.72;5007355;28;20026;-65
2022/01/15 00:05:14;;;;;;;22.33;12.02;;;;;;;-2.35;96.55;99939.06;5015537;28;20037;-65
2022/01/15 00:07:39;;;;;;;26.33;13.48;;;;;;;-2.44;96.95;99934.34;5015108;28;20097;-65
2022/01/15 00:10:07;;;;;;;41.90;13.90;;;;;;;-2.46;97.27;99935.06;5013886;28;20026;-65
2022/01/15 00:12:39;;;;;;;21.15;11.35;;;;;;;-2.39;97.14;99922.59;5014847;28;20217;-65
2022/01/15 00:15:05;;;;;;;;;;;;;;;-2.55;96.70;99924.28;5017144;28;20022;-65
2022/01/15 00:20:29;;;;;;;23.98;11.80;;;;;;;-2.64;98.58;99913.47;4989584;28;20034;-65
2022/01/15 00:22:57;;;;;;;24.77;12.93;;;;;;;-2.61;98.96;99918.81;5013270;28;20022;-65
2022/01/15 00:25:26;;;;;;;37.65;18.02;;;;;;;-2.60;99.72;99918.88;5017445;28;20025;-65
2022/01/15 00:27:52;;;;;;;32.10;12.77;;;;;;;-2.52;100.00;99914.13;4975731;28;1152102;-65
2022/01/15 00:30:18;;;;;;;19.08;11.40;;;;;;;-2.50;99.39;99909.94;5010636;28;20034;-65
2022/01/15 00:32:44;;;;;;;27.08;14.52;;;;;;;-2.43;98.96;99919.75;5017703;28;20156;-65
2022/01/15 00:35:13;;;;;;;32.15;13.25;;;;;;;-2.37;98.14;99909.78;5019995;28;20022;-65
2022/01/15 00:37:39;;;;;;;28.42;13.07;;;;;;;-2.52;97.42;99908.97;5008304;28;20023;-65
2022/01/15 00:40:08;;;;;;;23.50;12.52;;;;;;;-2.49;97.11;99914.28;5014768;28;20026;-65
2022/01/15 00:42:35;;;;;;;28.15;12.23;;;;;;;-2.49;96.95;99911.72;5014637;28;20013;-65
2022/01/15 00:45:02;;;;;;;26.95;12.35;;;;;;;-2.57;96.49;99920.72;5013402;28;20025;-65
2022/01/15 00:47:31;;;;;;;19.05;10.57;;;;;;;-2.63;96.28;99910.09;5013120;28;20041;-65
2022/01/15 00:50:01;;;;;;;19.80;10.82;;;;;;;-2.55;96.13;99907.13;5016597;28;20306;-65
2022/01/15 00:52:27;;;;;;;28.23;12.57;;;;;;;-2.52;96.17;99914.13;5013815;28;20021;-65
2022/01/15 00:54:53;;;;;;;25.95;12.73;;;;;;;-2.51;95.96;99900.44;5021915;28;20318;-65
2022/01/15 00:57:19;;;;;;;26.27;12.18;;;;;;;-2.55;96.11;99904.56;5012372;28;20018;-65
2022/01/15 00:59:45;;;;;;;29.23;12.13;;;;;;;-2.60;96.19;99902.53;5012277;28;20064;-65
2022/01/15 01:02:10;;;;;;;27.10;11.95;;;;;;;-2.63;96.31;99899.78;5020418;28;20027;-65
2022/01/15 01:04:35;;;;;;;25.77;14.73;;;;;;;-2.73;95.79;99903.59;5021135;28;20040;-65
2022/01/15 01:07:01;;;;;;;26.42;10.43;;;;;;;-2.80;95.70;99900.59;5011915;28;20022;-65
2022/01/15 01:09:37;;;;;;;27.58;13.05;;;;;;;-2.82;97.15;99907.34;5020670;28;20065;-65
2022/01/15 01:12:20;;;;;;;25.55;11.13;;;;;;;-2.71;97.21;99906.25;5010417;28;20018;-65
2022/01/15 01:20:21;;;;;;;30.10;12.13;;;;;;;-2.78;96.17;99893.84;5013968;28;20037;-65
2022/01/15 01:25:19;;;;;;;31.38;14.13;;;;;;;-2.88;96.65;99901.91;5007485;28;20080;-65
2022/01/15 01:27:46;;;;;;;31.70;12.35;;;;;;;-2.90;97.55;99898.34;5015608;28;20101;-65
2022/01/15 01:30:24;;;;;;;26.13;11.40;;;;;;;-2.92;97.71;99895.69;5015469;28;20030;-65
2022/01/15 01:35:32;;;;;;;24.75;11.55;;;;;;;-2.83;97.09;99893.59;5008419;28;20022;-65
2022/01/15 01:38:07;;;;;;;16.83;9.75;;;;;;;-2.99;96.52;99887.56;5019921;28;21061;-65
2022/01/15 01:40:39;;;;;;;31.48;11.45;;;;;;;-2.87;96.46;99888.22;5020020;28;20025;-65
2022/01/15 01:43:26;;;;;;;17.52;10.32;;;;;;;-2.94;96.52;99887.00;5011434;28;20040;-65
2022/01/15 01:46:08;;;;;;;22.38;12.15;;;;;;;-2.93;96.57;99888.78;5013428;28;20076;-65
2022/01/15 01:48:34;;;;;;;30.45;13.07;;;;;;;-2.96;96.38;99885.16;5016919;28;20127;-65
2022/01/15 01:50:59;;;;;;;33.63;12.55;;;;;;;-2.89;96.32;99879.50;5018969;28;20096;-65
2022/01/15 01:53:25;;;;;;;27.42;12.52;;;;;;;-2.98;96.28;99879.00;5006870;28;20022;-65
2022/01/15 01:55:50;;;;;;;29.27;11.63;;;;;;;-3.04;96.20;99873.56;5017302;28;20072;-65
2022/01/15 01:58:15;;;;;;;33.17;13.75;;;;;;;-3.08;96.58;99876.75;5013289;28;20093;-65
2022/01/15 02:00:41;;;;;;;20.50;11.18;;;;;;;-3.08;96.36;99867.34;5012130;28;20032;-65
2022/01/15 02:03:06;;;;;;;26.77;13.00;;;;;;;-2.97;96.08;99875.66;5006779;28;20377;-65
2022/01/15 02:05:32;;;;;;;27.10;14.02;;;;;;;-3.02;96.39;99871.94;5011890;28;20017;-65
2022/01/15 02:07:57;;;;;;;24.83;10.77;;;;;;;-3.02;96.44;99872.84;5018141;28;20018;-65
2022/01/15 02:10:23;;;;;;;31.08;12.45;;;;;;;-3.04;96.09;99864.13;5013647;28;20018;-65
2022/01/15 02:12:54;;;;;;;23.65;10.48;;;;;;;-2.99;95.93;99860.13;5023073;28;20018;-65
2022/01/15 02:15:22;;;;;;;21.45;10.25;;;;;;;-3.02;95.47;99861.63;5019986;28;20037;-65
2022/01/15 02:17:49;;;;;;;23.70;13.40;;;;;;;-3.15;95.80;99859.22;5016427;28;20028;-65
2022/01/15 02:20:37;;;;;;;35.85;14.45;;;;;;;-3.27;95.73;99853.41;5014552;28;20026;-65
2022/01/15 02:25:56;;;;;;;25.67;11.87;;;;;;;-3.15;96.88;99856.66;5015439;28;20029;-65
2022/01/15 02:28:27;;;;;;;26.77;13.00;;;;;;;-3.29;96.39;99847.31;5020054;28;20046;-65
2022/01/15 02:30:57;;;;;;;29.17;13.15;;;;;;;-3.21;96.60;99843.44;5011758;28;20145;-65
2022/01/15 02:33:23;;;;;;;29.88;13.50;;;;;;;-3.17;96.36;99850.50;5008518;28;20088;-65
2022/01/15 02:35:49;;;;;;;48.05;15.27;;;;;;;-3.27;96.31;99849.16;5016598;28;20038;-65
2022/01/15 02:38:14;;;;;;;41.50;16.58;;;;;;;-3.32;96.14;99844.56;5013513;28;20026;-65
2022/01/15 02:40:40;;;;;;;34.08;15.70;;;;;;;-3.30;96.20;99845.53;5012793;28;20021;-65
2022/01/15 02:43:09;;;;;;;27.67;14.40;;;;;;;-3.44;95.72;99849.06;5012481;28;20030;-65
2022/01/15 02:45:36;;;;;;;23.13;12.27;;;;;;;-3.39;96.78;99848.50;5007747;28;20030;-65
2022/01/15 02:48:09;;;;;;;33.75;12.77;;;;;;;-3.35;96.26;99840.13;5017365;28;20306;-65
2022/01/15 02:50:34;;;;;;;19.25;10.88;;;;;;;-3.36;95.69;99834.94;5009163;28;20318;-65
2022/01/15 02:53:01;;;;;;;20.25;10.07;;;;;;;-3.41;96.02;99838.94;5011771;28;20077;-65
2022/01/15 02:55:27;;;;;;;26.92;13.50;;;;;;;-3.45;95.71;99842.16;5011375;28;20021;-65
2022/01/15 02:57:52;;;;;;;33.33;13.48;;;;;;;-3.52;95.98;99845.16;5016367;28;20037;-65
2022/01/15 03:00:18;;;;;;;29.08;13.18;;;;;;;-3.44;96.02;99838.75;5013499;28;20045;-65
2022/01/15 03:02:43;;;;;;;30.98;12.32;;;;;;;-3.39;95.61;99834.75;5010602;28;20022;-65
2022/01/15 03:05:09;;;;;;;23.80;11.75;;;;;;;-3.41;95.59;99834.69;5013270;28;20030;-65
2022/01/15 03:07:36;;;;;;;22.42;12.27;;;;;;;-3.35;96.12;99834.13;5014810;28;20037;-65
2022/01/15 03:10:02;;;;;;;21.23;12.20;;;;;;;-3.40;96.15;99825.25;5012877;28;20022;-65
2022/01/15 03:12:28;;;;;;;40.35;13.00;;;;;;;-3.33;96.02;99822.19;5020469;28;20017;-65
2022/01/15 03:14:59;;;;;;;23.48;12.30;;;;;;;-3.47;95.50;99810.28;5012176;28;20051;-65
2022/01/15 03:17:24;;;;;;;27.20;12.57;;;;;;;-3.42;95.77;99812.28;5015971;28;20107;-65
2022/01/15 03:19:50;;;;;;;38.92;13.23;;;;;;;-3.34;95.94;99821.31;5011038;28;20026;-65
2022/01/15 03:22:15;;;;;;;21.38;11.60;;;;;;;-3.39;95.81;99816.75;5017414;28;20079;-65
2022/01/15 03:24:41;;;;;;;25.27;13.52;;;;;;;-3.35;95.55;99818.66;5014324;28;20026;-65
2022/01/15 03:27:06;;;;;;;26.20;12.90;;;;;;;-3.42;95.71;99812.28;5014945;28;20034;-65
2022/01/15 03:29:31;;;;;;;26.25;13.50;;;;;;;-3.44;96.07;99807.88;5016240;28;20086;-65
2022/01/15 03:31:57;;;;;;;27.45;12.93;;;;;;;-3.28;95.86;99810.47;5016273;28;20041;-65
2022/01/15 03:34:23;;;;;;;30.38;13.15;;;;;;;-3.31;96.20;99810.28;5017608;28;20049;-65
2022/01/15 03:36:48;;;;;;;26.50;12.48;;;;;;;-3.38;95.67;99810.78;5013601;28;20014;-65
2022/01/15 03:39:14;;;;;;;40.20;16.10;;;;;;;-3.41;96.03;99815.75;5016046;28;20199;-65
2022/01/15 03:41:39;;;;;;;32.65;13.55;;;;;;;-3.36;95.30;99817.78;5010929;28;20034;-65
2022/01/15 03:44:05;;;;;;;23.83;12.07;;;;;;;-3.47;95.83;99812.84;5021496;28;20030;-65
2022/01/15 03:46:30;;;;;;;39.70;13.90;;;;;;;-3.50;96.25;99812.69;5017154;28;20318;-65
2022/01/15 03:48:56;;;;;;;28.48;13.55;;;;;;;-3.56;96.42;99812.34;5015728;28;20022;-65
2022/01/15 03:51:21;;;;;;;25.25;12.80;;;;;;;-3.59;97.67;99807.03;5014398;28;20022;-65
2022/01/15 03:53:46;;;;;;;23.70;11.55;;;;;;;-3.62;97.96;99797.47;5022864;28;20049;-65
2022/01/15 03:56:14;;;;;;;20.45;10.93;;;;;;;-3.61;97.72;99803.53;5009782;28;20085;-65
2022/01/15 03:58:40;;;;;;;24.13;12.10;;;;;;;-3.60;98.55;99800.13;5018786;28;20341;-65
2022/01/15 04:01:05;;;;;;;21.58;11.65;;;;;;;-3.73;98.11;99803.75;5020988;28;20026;-65
2022/01/15 04:03:31;;;;;;;21.45;11.00;;;;;;;-3.65;99.09;99801.56;5018030;28;20026;-65
2022/01/15 04:05:56;;;;;;;25.33;11.30;;;;;;;-3.54;99.51;99796.19;5014950;28;20036;-65
2022/01/15 04:08:22;;;;;;;26.92;13.57;;;;;;;-3.56;99.15;99796.91;5012716;28;20029;-65
2022/01/15 04:10:47;;;;;;;20.15;10.40;;;;;;;-3.52;98.95;99788.56;5014956;28;20088;-65
2022/01/15 04:13:15;;;;;;;23.10;11.13;;;;;;;-3.50;99.80;99792.09;5016804;28;20045;-65
2022/01/15 04:15:42;;;;;;;21.45;11.40;;;;;;;-3.30;99.16;99791.47;5017540;28;20222;-65
2022/01/15 04:18:07;;;;;;;46.97;16.83;;;;;;;-3.49;98.98;99797.34;5014916;28;20033;-65
2022/01/15 04:20:32;;;;;;;61.38;24.05;;;;;;;-3.50;98.17;99797.25;5012658;28;20022;-65
2022/01/15 04:22:58;;;;;;;58.85;22.95;;;;;;;-3.57;97.88;99790.00;5011691;28;20026;-65
2022/01/15 04:25:23;;;;;;;53.28;21.35;;;;;;;-3.69;97.27;99789.34;5017172;28;20028;-65
2022/01/15 04:27:49;;;;;;;65.30;18.15;;;;;;;-3.70;97.31;99796.16;5017811;28;20046;-65
2022/01/15 04:30:17;;;;;;;56.50;20.02;;;;;;;-3.56;98.17;99791.78;5014046;28;20049;-65
2022/01/15 04:32:42;;;;;;;31.02;15.25;;;;;;;-3.50;99.00;99792.09;5012671;28;20022;-65
2022/01/15 04:35:08;;;;;;;35.35;11.52;;;;;;;-3.34;99.42;99792.13;5012605;28;20106;-65
2022/01/15 04:38:02;;;;;;;22.65;11.32;;;;;;;-3.35;99.74;99792.94;5017371;28;20025;-65
2022/01/15 04:40:19;;;;;;;20.10;9.02;;;;;;;-3.40;99.41;99778.91;5015589;28;20045;-65
2022/01/15 04:42:45;;;;;;;24.73;10.40;;;;;;;-3.33;98.24;99786.16;5011686;28;20022;-65
2022/01/15 04:45:11;;;;;;;23.83;10.93;;;;;;;-3.45;98.00;99788.09;5018073;28;20033;-65
2022/01/15 04:47:38;;;;;;;23.33;11.57;;;;;;;-3.36;97.69;99784.31;5011330;28;20089;-65
2022/01/15 04:50:06;;;;;;;18.70;7.18;;;;;;;-3.30;98.80;99781.16;5014048;28;20381;-65
2022/01/15 04:52:34;;;;;;;29.65;9.57;;;;;;;-3.24;99.27;99776.34;5013373;28;20375;-65
2022/01/15 04:55:01;;;;;;;13.68;7.88;;;;;;;-2.99;100.00;99779.38;5014298;28;20034;-65
2022/01/15 04:57:26;;;;;;;25.90;10.73;;;;;;;-3.10;99.45;99785.69;5017404;28;20014;-65
2022/01/15 04:59:51;;;;;;;16.77;9.00;;;;;;;-2.91;100.00;99788.41;5019606;28;20025;-65
2022/01/15 05:02:17;;;;;;;11.23;6.28;;;;;;;-2.81;100.00;99790.66;5013209;28;20090;-65
2022/01/15 05:04:42;;;;;;;23.08;9.43;;;;;;;-3.16;99.19;99785.38;5018900;28;20030;-65
2022/01/15 05:07:08;;;;;;;24.05;6.97;;;;;;;-2.85;100.00;99786.16;5014862;28;20214;-65
2022/01/15 05:09:33;;;;;;;31.83;9.38;;;;;;;-2.83;99.99;99776.78;5011474;28;20124;-65
2022/01/15 05:12:08;;;;;;;18.73;9.00;;;;;;;-2.78;100.00;99783.06;5017342;28;20335;-65
2022/01/15 05:14:34;;;;;;;25.60;9.75;;;;;;;-2.72;100.00;99783.38;5006937;28;20025;-65
2022/01/15 05:17:01;;;;;;;22.40;9.40;;;;;;;-2.79;99.37;99784.75;5014130;28;20050;-65
2022/01/15 05:19:27;;;;;;;22.58;10.82;;;;;;;-2.79;98.42;99784.75;5009969;28;20117;-65
2022/01/15 05:21:55;;;;;;;12.38;7.63;;;;;;;-2.78;99.69;99777.91;5018628;28;20026;-65
2022/01/15 05:24:20;;;;;;;17.90;9.18;;;;;;;-2.66;99.58;99775.97;5012228;28;20221;-65
2022/01/15 05:26:46;;;;;;;26.42;11.07;;;;;;;-2.65;99.78;99782.88;5009969;28;20073;-65
2022/01/15 05:29:12;;;;;;;22.20;11.35;;;;;;;-2.70;99.56;99784.34;5023921;28;20025;-65
2022/01/15 05:31:37;;;;;;;16.80;7.05;;;;;;;-2.44;100.00;99783.94;5023659;28;20025;-65
2022/01/15 05:34:03;;;;;;;18.98;8.35;;;;;;;-2.33;100.00;99780.19;5017943;28;20089;-65
2022/01/15 05:36:30;;;;;;;21.95;8.70;;;;;;;-2.23;100.00;99779.84;5011207;28;20057;-65
2022/01/15 05:38:56;;;;;;;16.60;6.63;;;;;;;-2.19;100.00;99776.59;5015423;28;20317;-65
2022/01/15 05:41:21;;;;;;;13.55;7.85;;;;;;;-2.05;100.00;99775.56;5014710;28;20036;-65
2022/01/15 05:43:47;;;;;;;13.70;7.63;;;;;;;-1.98;100.00;99772.47;5014521;28;20037;-65
2022/01/15 05:46:12;;;;;;;11.13;5.93;;;;;;;-1.98;100.00;99772.47;5015366;28;20033;-65
2022/01/15 05:48:38;;;;;;;13.48;6.32;;;;;;;-2.01;100.00;99772.31;5011751;28;20218;-65
2022/01/15 05:51:03;;;;;;;13.35;8.25;;;;;;;-2.02;100.00;99760.25;5015089;28;20322;-65
2022/01/15 05:53:28;;;;;;;15.68;6.93;;;;;;;-1.96;100.00;99760.53;5011924;28;20048;-65
2022/01/15 05:55:54;;;;;;;13.02;8.05;;;;;;;-1.99;100.00;99765.56;5016598;28;20036;-65
2022/01/15 05:58:19;;;;;;;10.18;5.95;;;;;;;-2.01;100.00;99762.00;5009154;28;20101;-65
2022/01/15 06:00:45;;;;;;;18.42;8.40;;;;;;;-2.04;100.00;99761.84;5019401;28;20029;-65
2022/01/15 06:03:10;;;;;;;19.35;6.65;;;;;;;-2.08;100.00;99759.94;5019320;28;20253;-65
2022/01/15 06:05:36;;;;;;;16.75;8.13;;;;;;;-2.13;100.00;99761.41;5006721;28;20026;-65
2022/01/15 06:08:01;;;;;;;19.60;10.02;;;;;;;-2.24;99.44;99760.03;5014761;28;20069;-65
2022/01/15 06:10:27;;;;;;;19.40;7.95;;;;;;;-2.29;99.25;99764.06;5009430;28;20033;-65
2022/01/15 06:12:52;;;;;;;14.60;5.68;;;;;;;-2.25;99.55;99755.66;5015331;28;20033;-65
2022/01/15 06:15:18;;;;;;;22.65;8.80;;;;;;;-2.31;99.62;99755.41;5016109;28;20049;-65
2022/01/15 06:17:44;;;;;;;16.20;7.90;;;;;;;-2.27;99.69;99757.31;5017451;28;20263;-65
2022/01/15 06:20:11;;;;;;;12.60;5.97;;;;;;;-2.32;99.96;99764.81;5013725;28;20018;-65
2022/01/15 06:22:37;;;;;;;13.48;5.95;;;;;;;-2.31;99.79;99760.56;5011567;28;20025;-65
2022/01/15 06:25:04;;;;;;;12.93;6.70;;;;;;;-2.35;99.57;99763.75;5013732;28;20022;-65
2022/01/15 06:27:30;;;;;;;15.38;7.25;;;;;;;-2.45;99.42;99753.81;5015962;28;20105;-65
2022/01/15 06:29:56;;;;;;;16.10;6.00;;;;;;;-2.45;99.82;99756.41;5016163;28;20026;-65
2022/01/15 06:32:24;;;;;;;15.65;7.25;;;;;;;-2.24;100.00;99757.44;5016330;28;20026;-65
2022/01/15 06:34:49;;;;;;;16.77;6.90;;;;;;;-2.26;100.00;99764.22;5009061;28;20030;-65
2022/01/15 06:37:14;;;;;;;22.02;8.27;;;;;;;-2.28;100.00;99755.50;5018750;28;20212;-65
2022/01/15 06:39:40;;;;;;;13.45;7.28;;;;;;;-2.32;100.00;99756.19;5010612;28;20345;-65
2022/01/15 06:42:05;;;;;;;16.83;7.72;;;;;;;-2.28;100.00;99760.66;5016397;28;20041;-65
2022/01/15 06:44:31;;;;;;;14.98;7.32;;;;;;;-2.25;100.00;99763.41;5015291;28;20030;-65
2022/01/15 06:46:57;;;;;;;15.02;8.13;;;;;;;-2.37;100.00;99766.25;5008610;28;20086;-65
2022/01/15 06:49:22;;;;;;;18.65;7.88;;;;;;;-2.32;100.00;99764.81;5021214;28;20025;-65
2022/01/15 06:51:48;;;;;;;22.92;7.65;;;;;;;-2.29;100.00;99774.38;5014809;28;20029;-65
2022/01/15 06:54:13;;;;;;;22.35;7.65;;;;;;;-2.29;100.00;99769.22;5022680;28;20025;-65
2022/01/15 06:56:39;;;;;;;17.48;8.75;;;;;;;-2.22;100.00;99771.28;5016887;28;20262;-65
2022/01/15 06:59:04;;;;;;;19.30;7.93;;;;;;;-2.14;100.00;99769.06;5016453;28;20048;-65
2022/01/15 07:01:30;;;;;;;20.27;9.38;;;;;;;-2.04;100.00;99781.59;5025102;28;20030;-65
2022/01/15 07:03:55;;;;;;;34.75;7.95;;;;;;;-2.06;100.00;99773.78;5018368;28;20022;-65
2022/01/15 07:06:21;;;;;;;30.95;7.60;;;;;;;-2.05;100.00;99773.00;5014016;28;20022;-65
2022/01/15 07:08:46;;;;;;;18.60;8.82;;;;;;;-1.99;100.00;99775.88;5022317;28;20039;-65
2022/01/15 07:11:11;;;;;;;20.88;8.57;;;;;;;-1.97;100.00;99774.22;5011734;28;20250;-65
2022/01/15 07:13:37;;;;;;;25.92;8.50;;;;;;;-2.01;100.00;99776.59;5017941;28;20041;-65
2022/01/15 07:16:02;;;;;;;17.33;7.43;;;;;;;-1.86;100.00;99777.31;5016873;28;20044;-65
2022/01/15 07:18:28;;;;;;;20.60;8.63;;;;;;;-1.99;100.00;99765.56;5013112;28;20018;-65
2022/01/15 07:20:54;;;;;;;22.10;8.43;;;;;;;-1.90;100.00;99765.09;5021736;28;20021;-65
2022/01/15 07:23:20;;;;;;;15.77;6.88;;;;;;;-1.98;100.00;99766.41;5020112;28;20026;-65
2022/01/15 07:25:45;;;;;;;16.50;7.68;;;;;;;-2.00;100.00;99768.91;5024573;28;20025;-65
2022/01/15 07:28:11;;;;;;;22.92;8.20;;;;;;;-1.99;100.00;99770.72;5012651;28;20030;-65
2022/01/15 07:30:36;;;;;;;15.18;7.60;;;;;;;-2.03;100.00;99768.78;5020328;28;20025;-66
2022/01/15 07:33:02;;;;;;;16.40;7.50;;;;;;;-1.90;100.00;99768.53;5011048;28;20213;-65
2022/01/15 07:35:28;;;;;;;18.55;9.35;;;;;;;-1.92;99.95;99762.44;5007050;28;20026;-65
2022/01/15 07:37:54;;;;;;;23.40;7.82;;;;;;;-1.98;99.74;99762.16;5007267;28;20026;-65
2022/01/15 07:40:19;;;;;;;26.88;9.35;;;;;;;-2.10;99.75;99761.56;5006968;28;20360;-65
2022/01/15 07:42:45;;;;;;;17.05;8.38;;;;;;;-2.17;100.00;99769.81;5006940;28;20026;-65
2022/01/15 07:45:13;;;;;;;17.67;8.52;;;;;;;-2.20;100.00;99769.66;5006960;28;20026;-65
2022/01/15 07:47:40;;;;;;;19.42;8.13;;;;;;;-2.16;100.00;99776.75;5006791;28;20030;-65
2022/01/15 07:50:09;;;;;;;22.75;9.43;;;;;;;-2.08;100.00;99765.13;5006840;28;20057;-65
2022/01/15 07:52:34;;;;;;;26.77;11.18;;;;;;;-2.08;100.00;99767.69;5006818;28;20029;-65
2022/01/15 07:55:00;;;;;;;15.40;8.48;;;;;;;-2.09;100.00;99762.47;5006790;28;20034;-65
2022/01/15 07:57:26;;;;;;;17.33;8.55;;;;;;;-1.97;100.00;99768.22;5006723;28;20129;-65
2022/01/15 07:59:52;;;;;;;16.65;7.38;;;;;;;-1.99;100.00;99760.41;5006758;28;20030;-65
2022/01/15 08:02:18;;;;;;;21.75;7.82;;;;;;;-1.93;100.00;99760.66;5016045;28;20025;-65
2022/01/15 08:04:43;;;;;;;19.25;9.05;;;;;;;-1.90;100.00;99749.63;5026323;28;20029;-65
2022/01/15 08:07:09;;;;;;;16.52;8.23;;;;;;;-1.76;100.00;99759.75;5026109;28;20225;-65
2022/01/15 08:09:35;;;;;;;23.40;9.55;;;;;;;-1.67;100.00;99755.03;5026051;28;20124;-65
2022/01/15 08:12:01;;;;;;;27.67;11.23;;;;;;;-1.70;100.00;99765.22;5025917;28;20064;-65
2022/01/15 08:14:27;;;;;;;24.58;11.15;;;;;;;-1.57;100.00;99767.53;5025589;28;20025;-65
2022/01/15 08:16:52;;;;;;;36.83;14.77;;;;;;;-1.62;100.00;99763.84;5025836;28;20059;-65
2022/01/15 08:19:17;;;;;;;33.13;12.68;;;;;;;-1.48;100.00;99762.81;5025755;28;20052;-65
2022/01/15 08:21:43;;;;;;;34.55;14.73;;;;;;;-1.55;99.69;99770.19;5026042;28;20306;-65
2022/01/15 08:24:10;;;;;;;39.22;16.42;;;;;;;-1.82;99.98;99751.75;5025933;28;20021;-65
2022/01/15 08:26:35;;;;;;;28.20;12.27;;;;;;;-1.61;100.00;99751.84;5025469;28;20337;-65
2022/01/15 08:29:00;;;;;;;23.88;9.10;;;;;;;-1.45;100.00;99746.56;5025724;28;20037;-65
2022/01/15 08:31:26;;;;;;;19.98;9.70;;;;;;;-1.32;100.00;99752.34;5025687;28;20029;-65
2022/01/15 08:33:51;;;;;;;17.80;10.15;;;;;;;-1.15;100.00;99743.63;5025546;28;20026;-65
2022/01/15 08:36:17;;;;;;;26.73;11.85;;;;;;;-1.14;100.00;99745.41;5025587;28;20025;-65
2022/01/15 08:38:44;;;;;;;26.30;10.13;;;;;;;-0.96;100.00;99750.47;5025422;28;20026;-65
2022/01/15 08:41:12;;;;;;;20.60;11.43;;;;;;;-0.83;100.00;99748.50;5025361;28;20225;-65
2022/01/15 08:43:38;;;;;;;29.63;11.52;;;;;;;-0.75;100.00;99747.13;5025296;28;20022;-65
2022/01/15 08:46:03;;;;;;;27.88;12.25;;;;;;;-0.79;100.00;99749.53;5025258;28;20068;-65
2022/01/15 08:48:29;;;;;;;19.27;9.80;;;;;;;-0.54;100.00;99745.44;5025308;28;20033;-65
2022/01/15 08:50:54;;;;;;;30.27;13.93;;;;;;;-0.44;100.00;99739.81;5024600;28;20280;-65
2022/01/15 08:53:21;;;;;;;29.30;11.98;;;;;;;-0.43;100.00;99733.84;5025129;28;20052;-66
2022/01/15 08:55:47;;;;;;;34.22;12.10;;;;;;;-0.25;100.00;99731.97;5025186;28;20025;-66
2022/01/15 08:58:12;;;;;;;26.58;12.05;;;;;;;-0.36;99.95;99735.84;5028165;28;20045;-66
2022/01/15 09:00:38;;;;;;;38.08;13.07;;;;;;;-0.37;100.00;99731.50;5032797;28;20317;-65
2022/01/15 09:03:06;;;;;;;23.77;10.38;;;;;;;-0.27;100.00;99738.81;5025301;28;20067;-65
2022/01/15 09:05:34;;;;;;;33.65;12.80;;;;;;;-0.10;100.00;99726.53;5014223;28;20034;-65
2022/01/15 09:07:59;;;;;;;23.27;10.82;;;;;;;0.03;99.93;99732.25;5024329;28;20026;-65
2022/01/15 09:10:25;;;;;;;20.83;10.98;;;;;;;0.08;99.99;99731.53;5023711;28;20026;-65
2022/01/15 09:12:50;;;;;;;28.67;11.45;;;;;;;0.17;99.53;99726.72;5024559;28;20030;-65
2022/01/15 09:15:17;;;;;;;28.38;12.52;;;;;;;0.25;99.17;99728.78;5024082;28;20244;-65
2022/01/15 09:17:43;;;;;;;33.65;13.43;;;;;;;0.23;98.86;99724.38;5024205;28;20329;-65
2022/01/15 09:20:09;;;;;;;25.42;10.73;;;;;;;0.33;99.30;99729.06;5024461;28;20037;-65
2022/01/15 09:22:35;;;;;;;25.42;11.38;;;;;;;0.32;98.61;99716.97;5024222;28;20081;-65
2022/01/15 09:25:00;;;;;;;27.50;12.85;;;;;;;0.40;98.66;99721.59;5024213;28;20047;-66
2022/01/15 09:30:12;;;;;;;27.38;11.98;;;;;;;0.40;98.48;99720.72;5024617;28;20028;-66
2022/01/15 09:32:47;;;;;;;30.17;13.25;;;;;;;0.48;98.49;99724.50;5027195;28;20047;-66
2022/01/15 09:35:15;;;;;;;25.35;13.43;;;;;;;0.50;98.36;99722.84;5022833;28;20026;-66
2022/01/15 09:37:41;;;;;;;26.65;10.57;;;;;;;0.57;98.02;99724.84;5028096;28;20026;-66
2022/01/15 09:40:09;;;;;;;26.52;10.73;;;;;;;0.62;98.12;99719.00;5024110;28;20048;-66
2022/01/15 09:42:37;;;;;;;26.42;11.50;;;;;;;0.71;97.79;99715.84;5014428;28;20025;-66
2022/01/15 09:45:03;;;;;;;28.05;12.00;;;;;;;0.84;97.33;99715.47;5018739;28;20227;-66
2022/01/15 09:47:29;;;;;;;26.73;12.15;;;;;;;1.08;97.27;99717.19;5018454;28;20317;-66
2022/01/15 09:49:57;;;;;;;30.75;12.18;;;;;;;1.06;97.24;99712.81;5020124;28;20073;-66
2022/01/15 09:52:23;;;;;;;24.70;10.80;;;;;;;1.00;97.30;99712.56;5021963;28;20076;-66
2022/01/15 09:54:50;;;;;;;28.33;11.15;;;;;;;1.23;97.07;99711.69;5021008;28;20063;-66
2022/01/15 09:57:16;;;;;;;21.98;10.00;;;;;;;1.30;96.27;99708.47;5022664;28;20044;-66
2022/01/15 09:59:42;;;;;;;25.90;10.23;;;;;;;1.33;96.40;99711.16;5023654;28;20381;-66
2022/01/15 10:02:07;;;;;;;28.23;12.45;;;;;;;1.27;96.21;99710.97;5015651;28;20030;-66
2022/01/15 10:04:35;;;;;;;31.88;10.73;;;;;;;1.45;96.36;99708.97;5016312;28;20022;-66
2022/01/15 10:07:11;;;;;;;24.75;11.27;;;;;;;1.54;95.96;99704.09;5014528;28;20026;-65
2022/01/15 10:09:37;;;;;;;29.70;11.52;;;;;;;1.44;96.05;99696.84;5008589;28;20025;-65
2022/01/15 10:12:03;;;;;;;23.02;10.93;;;;;;;1.46;95.97;99684.81;5011896;28;20424;-65
2022/01/15 10:14:33;;;;;;;26.83;10.85;;;;;;;1.52;95.85;99679.81;5012110;28;20251;-65
2022/01/15 10:17:02;;;;;;;31.60;12.40;;;;;;;1.51;96.49;99685.81;5014045;28;20314;-66
2022/01/15 10:19:36;;;;;;;23.55;10.73;;;;;;;1.51;96.67;99678.03;5013304;28;20411;-66
2022/01/15 10:22:22;;;;;;;25.23;11.25;;;;;;;1.49;96.69;99671.94;5024430;28;20317;-65
2022/01/15 10:24:56;;;;;;;24.67;10.48;;;;;;;1.39;96.53;99672.47;5018051;28;20096;-65
2022/01/15 10:27:25;;;;;;;32.17;12.93;;;;;;;1.54;97.00;99673.84;5010616;28;20113;-65
2022/01/15 10:29:56;;;;;;;30.35;11.32;;;;;;;1.76;96.58;99665.03;5019976;28;20313;-65
2022/01/15 10:32:23;;;;;;;28.70;11.75;;;;;;;1.67;96.70;99669.91;5019326;28;20334;-65
2022/01/15 10:34:48;;;;;;;29.08;13.88;;;;;;;1.75;96.91;99663.28;5019936;28;20028;-66
2022/01/15 10:37:17;;;;;;;24.60;12.10;;;;;;;1.79;97.00;99660.81;5024392;28;20089;-66
2022/01/15 10:39:54;;;;;;;28.48;10.77;;;;;;;1.83;96.94;99659.19;5018715;28;20320;-66
2022/01/15 10:42:23;;;;;;;31.00;12.40;;;;;;;2.00;96.66;99658.00;5017865;28;20089;-66
2022/01/15 10:44:59;;;;;;;27.17;13.70;;;;;;;1.99;97.30;99649.31;5022361;28;20343;-66
2022/01/15 10:47:28;;;;;;;25.05;11.05;;;;;;;2.10;97.59;99652.25;5021358;28;20045;-66
2022/01/15 10:50:01;;;;;;;19.10;9.05;;;;;;;2.18;97.41;99650.75;5023789;28;20045;-66
2022/01/15 10:52:28;;;;;;;21.83;10.73;;;;;;;2.11;97.70;99646.22;5024304;28;20021;-66
2022/01/15 10:55:00;;;;;;;22.65;10.25;;;;;;;2.10;97.25;99647.06;5023826;28;20026;-66
2022/01/15 10:57:34;;;;;;;26.63;10.88;;;;;;;2.31;97.25;99639.88;5026894;28;20317;-66
2022/01/15 11:00:08;;;;;;;25.90;11.23;;;;;;;2.43;96.15;99637.63;5022005;28;20041;-66
2022/01/15 11:02:34;;;;;;;31.05;11.98;;;;;;;2.36;96.36;99635.72;5016433;28;20025;-66
2022/01/15 11:05:00;;;;;;;20.75;10.35;;;;;;;2.35;97.74;99628.75;5021040;28;20025;-66
2022/01/15 11:07:26;;;;;;;26.15;11.90;;;;;;;2.47;96.99;99634.31;5019608;28;20038;-66
2022/01/15 11:09:53;;;;;;;24.15;10.10;;;;;;;2.66;97.63;99633.94;5022823;28;20081;-66
2022/01/15 11:12:28;;;;;;;31.33;10.73;;;;;;;2.70;96.38;99633.22;5021762;28;20085;-66
2022/01/15 11:14:54;;;;;;;24.77;11.55;;;;;;;2.73;95.94;99632.41;5020506;28;20317;-66
2022/01/15 11:17:19;;;;;;;29.10;12.13;;;;;;;2.86;95.34;99635.41;5020935;28;20068;-66
2022/01/15 11:19:45;;;;;;;23.15;10.95;;;;;;;3.01;92.75;99625.38;5025180;28;20022;-66
2022/01/15 11:22:11;;;;;;;20.27;9.77;;;;;;;3.04;91.51;99612.44;5027546;28;20084;-66
2022/01/15 11:24:37;;;;;;;29.95;11.05;;;;;;;3.14;90.98;99614.47;5012886;28;20253;-66
2022/01/15 11:27:04;;;;;;;24.55;9.38;;;;;;;3.21;90.29;99613.78;5014640;28;20038;-66
2022/01/15 11:29:30;;;;;;;22.30;10.63;;;;;;;3.29;89.60;99616.59;5014658;28;20332;-66
2022/01/15 11:32:00;;;;;;;21.70;10.02;;;;;;;3.28;89.81;99617.41;5019277;28;20085;-66
2022/01/15 11:34:27;;;;;;;18.70;8.88;;;;;;;3.32;88.52;99612.31;5020797;28;20030;-66
2022/01/15 11:36:53;;;;;;;17.90;9.10;;;;;;;3.42;87.64;99616.88;5019427;28;20014;-66